sensor_id;sensor_type;location;lat;lon;timestamp;temperature;humidity
5055;DHT22;13829;48.990;8.346;2024-01-06T00:00:17;7.00;99.90
5055;DHT22;13829;48.990;8.346;2024-01-06T00:02:46;6.90;99.90
5055;DHT22;13829;48.990;8.346;2024-01-06T00:05:13;6.80;99.90
5055;DHT22;13829;48.990;8.346;2024-01-06T00:07:40;6.80;99.90
5055;DHT22;13829;48.990;8.346;2024-01-06T00:10:07;6.70;99.90
5055;DHT22;13829;48.990;8.346;2024-01-06T00:12:36;6.60;99.90
5055;DHT22;13829;48.990;8.346;2024-01-06T00:15:04;6.60;99.90
5055;DHT22;13829;48.990;8.346;2024-01-06T00:17:32;6.50;99.90
5055;DHT22;13829;48.990;8.346;2024-01-06T00:19:59;6.40;99.90
5055;DHT22;13829;48.990;8.346;2024-01-06T00:22:27;6.40;99.90
5055;DHT22;13829;48.990;8.346;2024-01-06T00:24:54;6.40;99.90
5055;DHT22;13829;48.990;8.346;2024-01-06T00:27:21;6.40;99.90
5055;DHT22;13829;48.990;8.346;2024-01-06T00:29:50;6.40;99.90
5055;DHT22;13829;48.990;8.346;2024-01-06T00:32:17;6.40;99.90
5055;DHT22;13829;48.990;8.346;2024-01-06T00:34:44;6.40;99.90
5055;DHT22;13829;48.990;8.346;2024-01-06T00:37:13;6.50;99.90
5055;DHT22;13829;48.990;8.346;2024-01-06T00:39:39;6.50;99.90
5055;DHT22;13829;48.990;8.346;2024-01-06T00:42:06;6.50;99.90
5055;DHT22;13829;48.990;8.346;2024-01-06T00:44:35;6.60;99.90
5055;DHT22;13829;48.990;8.346;2024-01-06T00:47:04;6.60;99.90
5055;DHT22;13829;48.990;8.346;2024-01-06T00:49:31;6.60;99.90
5055;DHT22;13829;48.990;8.346;2024-01-06T00:51:58;6.70;99.90
5055;DHT22;13829;48.990;8.346;2024-01-06T00:54:25;6.70;99.90
5055;DHT22;13829;48.990;8.346;2024-01-06T00:56:51;6.70;99.90
5055;DHT22;13829;48.990;8.346;2024-01-06T00:59:18;6.70;99.90
5055;DHT22;13829;48.990;8.346;2024-01-06T01:01:45;6.70;99.90
5055;DHT22;13829;48.990;8.346;2024-01-06T01:04:14;6.70;99.90
5055;DHT22;13829;48.990;8.346;2024-01-06T01:06:40;6.70;99.90
5055;DHT22;13829;48.990;8.346;2024-01-06T01:09:07;6.70;99.90
5055;DHT22;13829;48.990;8.346;2024-01-06T01:11:36;6.70;99.90
5055;DHT22;13829;48.990;8.346;2024-01-06T01:14:03;6.70;99.90
5055;DHT22;13829;48.990;8.346;2024-01-06T01:16:30;6.70;99.90
5055;DHT22;13829;48.990;8.346;2024-01-06T01:18:57;6.60;99.90
5055;DHT22;13829;48.990;8.346;2024-01-06T01:21:26;6.60;99.90
5055;DHT22;13829;48.990;8.346;2024-01-06T01:23:53;6.60;99.90
5055;DHT22;13829;48.990;8.346;2024-01-06T01:26:20;6.60;99.90
5055;DHT22;13829;48.990;8.346;2024-01-06T01:28:47;6.60;99.90
5055;DHT22;13829;48.990;8.346;2024-01-06T01:31:14;6.60;99.90
5055;DHT22;13829;48.990;8.346;2024-01-06T01:33:41;6.60;99.90
5055;DHT22;13829;48.990;8.346;2024-01-06T01:36:07;6.60;99.90
5055;DHT22;13829;48.990;8.346;2024-01-06T01:38:36;6.60;99.90
5055;DHT22;13829;48.990;8.346;2024-01-06T01:41:03;6.60;99.90
5055;DHT22;13829;48.990;8.346;2024-01-06T01:43:30;6.60;99.90
5055;DHT22;13829;48.990;8.346;2024-01-06T01:45:57;6.60;99.90
5055;DHT22;13829;48.990;8.346;2024-01-06T01:48:25;6.60;99.90
5055;DHT22;13829;48.990;8.346;2024-01-06T01:50:53;6.50;99.90
5055;DHT22;13829;48.990;8.346;2024-01-06T01:53:20;6.50;99.90
5055;DHT22;13829;48.990;8.346;2024-01-06T01:55:51;6.50;99.90
5055;DHT22;13829;48.990;8.346;2024-01-06T01:58:18;6.50;99.90
5055;DHT22;13829;48.990;8.346;2024-01-06T02:00:46;6.60;99.90
5055;DHT22;13829;48.990;8.346;2024-01-06T02:03:13;6.60;99.90
5055;DHT22;13829;48.990;8.346;2024-01-06T02:05:40;6.60;99.90
5055;DHT22;13829;48.990;8.346;2024-01-06T02:08:08;6.50;99.90
5055;DHT22;13829;48.990;8.346;2024-01-06T02:10:35;6.50;99.90
5055;DHT22;13829;48.990;8.346;2024-01-06T02:13:09;6.40;99.90
5055;DHT22;13829;48.990;8.346;2024-01-06T02:15:36;6.30;99.90
5055;DHT22;13829;48.990;8.346;2024-01-06T02:18:04;6.30;99.90
5055;DHT22;13829;48.990;8.346;2024-01-06T02:20:32;6.20;99.90
5055;DHT22;13829;48.990;8.346;2024-01-06T02:23:00;6.10;99.90
5055;DHT22;13829;48.990;8.346;2024-01-06T02:25:27;6.10;99.90
5055;DHT22;13829;48.990;8.346;2024-01-06T02:27:55;6.10;99.90
5055;DHT22;13829;48.990;8.346;2024-01-06T02:30:22;6.20;99.90
5055;DHT22;13829;48.990;8.346;2024-01-06T02:32:49;6.20;99.90
5055;DHT22;13829;48.990;8.346;2024-01-06T02:35:16;6.20;99.90
5055;DHT22;13829;48.990;8.346;2024-01-06T02:37:43;6.20;99.90
5055;DHT22;13829;48.990;8.346;2024-01-06T02:40:13;6.10;99.90
5055;DHT22;13829;48.990;8.346;2024-01-06T02:42:40;6.10;99.90
5055;DHT22;13829;48.990;8.346;2024-01-06T02:45:08;6.10;99.90
5055;DHT22;13829;48.990;8.346;2024-01-06T02:47:35;6.00;99.90
5055;DHT22;13829;48.990;8.346;2024-01-06T02:50:03;6.00;99.90
5055;DHT22;13829;48.990;8.346;2024-01-06T02:52:31;6.00;99.90
5055;DHT22;13829;48.990;8.346;2024-01-06T02:54:58;5.90;99.90
5055;DHT22;13829;48.990;8.346;2024-01-06T02:57:27;5.90;99.90
5055;DHT22;13829;48.990;8.346;2024-01-06T02:59:54;6.00;99.90
5055;DHT22;13829;48.990;8.346;2024-01-06T03:02:21;6.00;99.90
5055;DHT22;13829;48.990;8.346;2024-01-06T03:04:48;6.00;99.90
5055;DHT22;13829;48.990;8.346;2024-01-06T03:07:16;6.00;99.90
5055;DHT22;13829;48.990;8.346;2024-01-06T03:09:42;6.00;99.90
5055;DHT22;13829;48.990;8.346;2024-01-06T03:12:09;5.90;99.90
5055;DHT22;13829;48.990;8.346;2024-01-06T03:14:38;5.80;99.90
5055;DHT22;13829;48.990;8.346;2024-01-06T03:17:05;5.70;99.90
5055;DHT22;13829;48.990;8.346;2024-01-06T03:19:32;5.70;99.90
5055;DHT22;13829;48.990;8.346;2024-01-06T03:21:59;5.70;99.90
5055;DHT22;13829;48.990;8.346;2024-01-06T03:24:27;5.70;99.90
5055;DHT22;13829;48.990;8.346;2024-01-06T03:26:54;5.70;99.90
5055;DHT22;13829;48.990;8.346;2024-01-06T03:29:21;5.70;99.90
5055;DHT22;13829;48.990;8.346;2024-01-06T03:31:49;5.80;99.90
5055;DHT22;13829;48.990;8.346;2024-01-06T03:34:16;5.80;99.90
5055;DHT22;13829;48.990;8.346;2024-01-06T03:36:43;5.80;99.90
5055;DHT22;13829;48.990;8.346;2024-01-06T03:39:10;5.90;99.90
5055;DHT22;13829;48.990;8.346;2024-01-06T03:41:38;5.90;99.90
5055;DHT22;13829;48.990;8.346;2024-01-06T03:44:05;6.00;99.90
5055;DHT22;13829;48.990;8.346;2024-01-06T03:46:33;6.10;99.90
5055;DHT22;13829;48.990;8.346;2024-01-06T03:49:02;6.10;99.90
5055;DHT22;13829;48.990;8.346;2024-01-06T03:51:29;6.20;99.90
5055;DHT22;13829;48.990;8.346;2024-01-06T03:53:56;6.20;99.90
5055;DHT22;13829;48.990;8.346;2024-01-06T03:56:23;6.40;99.90
5055;DHT22;13829;48.990;8.346;2024-01-06T03:58:50;6.40;99.90
5055;DHT22;13829;48.990;8.346;2024-01-06T04:01:17;6.40;99.90
5055;DHT22;13829;48.990;8.346;2024-01-06T04:03:44;6.50;99.90
5055;DHT22;13829;48.990;8.346;2024-01-06T04:06:12;6.60;99.90
5055;DHT22;13829;48.990;8.346;2024-01-06T04:08:39;6.60;99.90
5055;DHT22;13829;48.990;8.346;2024-01-06T04:11:07;6.60;99.90
5055;DHT22;13829;48.990;8.346;2024-01-06T04:13:34;6.60;99.90
5055;DHT22;13829;48.990;8.346;2024-01-06T04:16:01;6.60;99.90
5055;DHT22;13829;48.990;8.346;2024-01-06T04:18:28;6.50;99.90
5055;DHT22;13829;48.990;8.346;2024-01-06T04:20:55;6.50;99.90
5055;DHT22;13829;48.990;8.346;2024-01-06T04:23:23;6.50;99.90
5055;DHT22;13829;48.990;8.346;2024-01-06T04:25:51;6.50;99.90
5055;DHT22;13829;48.990;8.346;2024-01-06T04:28:18;6.60;99.90
5055;DHT22;13829;48.990;8.346;2024-01-06T04:30:45;6.60;99.90
5055;DHT22;13829;48.990;8.346;2024-01-06T04:33:11;6.60;99.90
5055;DHT22;13829;48.990;8.346;2024-01-06T04:35:38;6.60;99.90
5055;DHT22;13829;48.990;8.346;2024-01-06T04:38:05;6.50;99.90
5055;DHT22;13829;48.990;8.346;2024-01-06T04:40:34;6.50;99.90
5055;DHT22;13829;48.990;8.346;2024-01-06T04:43:00;6.60;99.90
5055;DHT22;13829;48.990;8.346;2024-01-06T04:45:28;6.60;99.90
5055;DHT22;13829;48.990;8.346;2024-01-06T04:47:55;6.50;99.90
5055;DHT22;13829;48.990;8.346;2024-01-06T04:50:22;6.50;99.90
5055;DHT22;13829;48.990;8.346;2024-01-06T04:52:49;6.50;99.90
5055;DHT22;13829;48.990;8.346;2024-01-06T04:55:16;6.50;99.90
5055;DHT22;13829;48.990;8.346;2024-01-06T04:57:44;6.60;99.90
5055;DHT22;13829;48.990;8.346;2024-01-06T05:00:12;6.60;99.90
5055;DHT22;13829;48.990;8.346;2024-01-06T05:02:40;6.70;99.90
5055;DHT22;13829;48.990;8.346;2024-01-06T05:05:07;6.70;99.90
5055;DHT22;13829;48.990;8.346;2024-01-06T05:07:34;6.80;99.90
5055;DHT22;13829;48.990;8.346;2024-01-06T05:10:01;6.90;99.90
5055;DHT22;13829;48.990;8.346;2024-01-06T05:12:28;6.90;99.90
5055;DHT22;13829;48.990;8.346;2024-01-06T05:14:56;6.90;99.90
5055;DHT22;13829;48.990;8.346;2024-01-06T05:17:23;6.90;99.90
5055;DHT22;13829;48.990;8.346;2024-01-06T05:19:50;7.00;99.90
5055;DHT22;13829;48.990;8.346;2024-01-06T05:22:17;6.80;99.90
5055;DHT22;13829;48.990;8.346;2024-01-06T05:24:45;6.80;99.90
5055;DHT22;13829;48.990;8.346;2024-01-06T05:27:12;6.70;99.90
5055;DHT22;13829;48.990;8.346;2024-01-06T05:29:38;6.70;99.90
5055;DHT22;13829;48.990;8.346;2024-01-06T05:32:07;6.70;99.90
5055;DHT22;13829;48.990;8.346;2024-01-06T05:34:34;6.70;99.90
5055;DHT22;13829;48.990;8.346;2024-01-06T05:37:01;6.70;99.90
5055;DHT22;13829;48.990;8.346;2024-01-06T05:39:28;6.70;99.90
5055;DHT22;13829;48.990;8.346;2024-01-06T05:41:55;6.80;99.90
5055;DHT22;13829;48.990;8.346;2024-01-06T05:44:22;6.80;99.90
5055;DHT22;13829;48.990;8.346;2024-01-06T05:46:49;6.80;99.90
5055;DHT22;13829;48.990;8.346;2024-01-06T05:49:18;6.70;99.90
5055;DHT22;13829;48.990;8.346;2024-01-06T05:51:45;6.80;99.90
5055;DHT22;13829;48.990;8.346;2024-01-06T05:54:12;6.80;99.90
5055;DHT22;13829;48.990;8.346;2024-01-06T05:56:39;6.80;99.90
5055;DHT22;13829;48.990;8.346;2024-01-06T05:59:06;6.70;99.90
5055;DHT22;13829;48.990;8.346;2024-01-06T06:01:33;6.70;99.90
5055;DHT22;13829;48.990;8.346;2024-01-06T06:04:00;6.70;99.90
5055;DHT22;13829;48.990;8.346;2024-01-06T06:06:28;6.70;99.90
5055;DHT22;13829;48.990;8.346;2024-01-06T06:08:56;6.70;99.90
5055;DHT22;13829;48.990;8.346;2024-01-06T06:11:23;6.70;99.90
5055;DHT22;13829;48.990;8.346;2024-01-06T06:13:51;6.70;99.90
5055;DHT22;13829;48.990;8.346;2024-01-06T06:16:18;6.70;99.90
5055;DHT22;13829;48.990;8.346;2024-01-06T06:18:44;6.80;99.90
5055;DHT22;13829;48.990;8.346;2024-01-06T06:21:11;6.80;99.90
5055;DHT22;13829;48.990;8.346;2024-01-06T06:23:40;6.80;99.90
5055;DHT22;13829;48.990;8.346;2024-01-06T06:26:07;6.90;99.90
5055;DHT22;13829;48.990;8.346;2024-01-06T06:28:35;6.80;99.90
5055;DHT22;13829;48.990;8.346;2024-01-06T06:31:02;6.80;99.90
5055;DHT22;13829;48.990;8.346;2024-01-06T06:33:29;6.80;99.90
5055;DHT22;13829;48.990;8.346;2024-01-06T06:35:58;6.80;99.90
5055;DHT22;13829;48.990;8.346;2024-01-06T06:38:25;6.90;99.90
5055;DHT22;13829;48.990;8.346;2024-01-06T06:40:54;6.90;99.90
5055;DHT22;13829;48.990;8.346;2024-01-06T06:43:21;6.90;99.90
5055;DHT22;13829;48.990;8.346;2024-01-06T06:45:48;7.00;99.90
5055;DHT22;13829;48.990;8.346;2024-01-06T06:48:15;7.10;99.90
5055;DHT22;13829;48.990;8.346;2024-01-06T06:50:42;7.30;99.90
5055;DHT22;13829;48.990;8.346;2024-01-06T06:53:09;7.00;99.90
5055;DHT22;13829;48.990;8.346;2024-01-06T06:55:36;7.10;99.90
5055;DHT22;13829;48.990;8.346;2024-01-06T06:58:05;7.00;99.90
5055;DHT22;13829;48.990;8.346;2024-01-06T07:00:32;7.00;99.90
5055;DHT22;13829;48.990;8.346;2024-01-06T07:02:59;7.00;99.90
5055;DHT22;13829;48.990;8.346;2024-01-06T07:05:27;6.90;99.90
5055;DHT22;13829;48.990;8.346;2024-01-06T07:07:54;7.00;99.90
5055;DHT22;13829;48.990;8.346;2024-01-06T07:10:21;7.00;99.90
5055;DHT22;13829;48.990;8.346;2024-01-06T07:12:48;7.00;99.90
5055;DHT22;13829;48.990;8.346;2024-01-06T07:15:16;7.10;99.90
5055;DHT22;13829;48.990;8.346;2024-01-06T07:17:43;7.10;99.90
5055;DHT22;13829;48.990;8.346;2024-01-06T07:20:10;7.10;99.90
5055;DHT22;13829;48.990;8.346;2024-01-06T07:22:37;7.00;99.90
5055;DHT22;13829;48.990;8.346;2024-01-06T07:25:05;7.10;99.90
5055;DHT22;13829;48.990;8.346;2024-01-06T07:27:32;7.10;99.90
5055;DHT22;13829;48.990;8.346;2024-01-06T07:29:59;7.10;99.90
5055;DHT22;13829;48.990;8.346;2024-01-06T07:32:28;7.20;99.90
5055;DHT22;13829;48.990;8.346;2024-01-06T07:34:55;7.20;99.90
5055;DHT22;13829;48.990;8.346;2024-01-06T07:37:22;7.30;99.90
5055;DHT22;13829;48.990;8.346;2024-01-06T07:39:49;7.20;99.90
5055;DHT22;13829;48.990;8.346;2024-01-06T07:42:16;7.40;99.90
5055;DHT22;13829;48.990;8.346;2024-01-06T07:44:43;7.30;99.90
5055;DHT22;13829;48.990;8.346;2024-01-06T07:47:10;7.30;99.90
5055;DHT22;13829;48.990;8.346;2024-01-06T07:49:38;7.40;99.90
5055;DHT22;13829;48.990;8.346;2024-01-06T07:52:05;7.40;99.90
5055;DHT22;13829;48.990;8.346;2024-01-06T07:54:32;7.40;99.90
5055;DHT22;13829;48.990;8.346;2024-01-06T07:56:59;7.30;99.90
5055;DHT22;13829;48.990;8.346;2024-01-06T07:59:26;7.30;99.90
5055;DHT22;13829;48.990;8.346;2024-01-06T08:01:53;7.40;99.90
5055;DHT22;13829;48.990;8.346;2024-01-06T08:04:20;7.50;99.90
5055;DHT22;13829;48.990;8.346;2024-01-06T08:06:48;7.50;99.90
5055;DHT22;13829;48.990;8.346;2024-01-06T08:09:15;7.50;99.90
5055;DHT22;13829;48.990;8.346;2024-01-06T08:11:42;7.50;99.90
5055;DHT22;13829;48.990;8.346;2024-01-06T08:14:11;7.50;99.90
5055;DHT22;13829;48.990;8.346;2024-01-06T08:16:38;7.50;99.90
5055;DHT22;13829;48.990;8.346;2024-01-06T08:19:05;7.50;99.90
5055;DHT22;13829;48.990;8.346;2024-01-06T08:21:32;7.50;99.90
5055;DHT22;13829;48.990;8.346;2024-01-06T08:24:01;7.50;99.90
5055;DHT22;13829;48.990;8.346;2024-01-06T08:26:28;7.50;99.90
5055;DHT22;13829;48.990;8.346;2024-01-06T08:28:56;7.60;99.90
5055;DHT22;13829;48.990;8.346;2024-01-06T08:31:23;7.60;99.90
5055;DHT22;13829;48.990;8.346;2024-01-06T08:33:49;7.70;99.90
5055;DHT22;13829;48.990;8.346;2024-01-06T08:36:17;7.80;99.90
5055;DHT22;13829;48.990;8.346;2024-01-06T08:38:43;7.60;99.90
5055;DHT22;13829;48.990;8.346;2024-01-06T08:41:12;7.60;99.90
5055;DHT22;13829;48.990;8.346;2024-01-06T08:43:39;7.60;99.90
5055;DHT22;13829;48.990;8.346;2024-01-06T08:46:06;7.60;99.90
5055;DHT22;13829;48.990;8.346;2024-01-06T08:48:33;7.60;99.90
5055;DHT22;13829;48.990;8.346;2024-01-06T08:51:00;7.50;99.90
5055;DHT22;13829;48.990;8.346;2024-01-06T08:53:27;7.40;99.90
5055;DHT22;13829;48.990;8.346;2024-01-06T08:55:54;7.40;99.90
5055;DHT22;13829;48.990;8.346;2024-01-06T08:58:22;7.40;99.90
5055;DHT22;13829;48.990;8.346;2024-01-06T09:00:50;7.40;99.90
5055;DHT22;13829;48.990;8.346;2024-01-06T09:03:18;7.50;99.90
5055;DHT22;13829;48.990;8.346;2024-01-06T09:05:50;7.50;99.90
5055;DHT22;13829;48.990;8.346;2024-01-06T09:08:18;7.50;99.90
5055;DHT22;13829;48.990;8.346;2024-01-06T09:10:45;7.60;99.90
5055;DHT22;13829;48.990;8.346;2024-01-06T09:13:12;7.60;99.90
5055;DHT22;13829;48.990;8.346;2024-01-06T09:15:40;7.70;99.90
5055;DHT22;13829;48.990;8.346;2024-01-06T09:18:08;7.60;99.90
5055;DHT22;13829;48.990;8.346;2024-01-06T09:20:35;7.60;99.90
5055;DHT22;13829;48.990;8.346;2024-01-06T09:23:04;7.70;99.90
5055;DHT22;13829;48.990;8.346;2024-01-06T09:25:31;7.70;99.90
5055;DHT22;13829;48.990;8.346;2024-01-06T09:27:58;7.80;99.90
5055;DHT22;13829;48.990;8.346;2024-01-06T09:30:26;7.80;99.90
5055;DHT22;13829;48.990;8.346;2024-01-06T09:32:54;7.70;99.90
5055;DHT22;13829;48.990;8.346;2024-01-06T09:35:21;7.70;99.90
5055;DHT22;13829;48.990;8.346;2024-01-06T09:37:48;7.80;99.90
5055;DHT22;13829;48.990;8.346;2024-01-06T09:40:21;7.70;99.90
5055;DHT22;13829;48.990;8.346;2024-01-06T09:42:49;7.80;99.90
5055;DHT22;13829;48.990;8.346;2024-01-06T09:45:16;7.90;99.90
5055;DHT22;13829;48.990;8.346;2024-01-06T09:47:47;7.90;99.90
5055;DHT22;13829;48.990;8.346;2024-01-06T09:50:19;7.90;99.90
5055;DHT22;13829;48.990;8.346;2024-01-06T09:52:47;7.90;99.90
5055;DHT22;13829;48.990;8.346;2024-01-06T09:55:23;7.80;99.90
5055;DHT22;13829;48.990;8.346;2024-01-06T09:57:52;7.90;99.90
5055;DHT22;13829;48.990;8.346;2024-01-06T10:00:20;7.80;99.90
5055;DHT22;13829;48.990;8.346;2024-01-06T10:02:48;7.80;99.90
5055;DHT22;13829;48.990;8.346;2024-01-06T10:05:17;7.90;99.90
5055;DHT22;13829;48.990;8.346;2024-01-06T10:07:44;7.90;99.90
5055;DHT22;13829;48.990;8.346;2024-01-06T10:10:12;8.00;99.90
5055;DHT22;13829;48.990;8.346;2024-01-06T10:12:40;7.90;99.90
5055;DHT22;13829;48.990;8.346;2024-01-06T10:15:09;7.90;99.90
5055;DHT22;13829;48.990;8.346;2024-01-06T10:17:37;7.90;99.90
5055;DHT22;13829;48.990;8.346;2024-01-06T10:20:07;8.10;99.90
5055;DHT22;13829;48.990;8.346;2024-01-06T10:22:38;8.10;99.90
5055;DHT22;13829;48.990;8.346;2024-01-06T10:25:09;8.10;99.90
5055;DHT22;13829;48.990;8.346;2024-01-06T10:27:37;8.10;99.90
5055;DHT22;13829;48.990;8.346;2024-01-06T10:30:06;8.10;99.90
5055;DHT22;13829;48.990;8.346;2024-01-06T10:32:35;8.10;99.90
5055;DHT22;13829;48.990;8.346;2024-01-06T10:35:03;8.20;99.90
5055;DHT22;13829;48.990;8.346;2024-01-06T10:37:31;8.20;99.90
5055;DHT22;13829;48.990;8.346;2024-01-06T10:40:11;8.20;99.90
5055;DHT22;13829;48.990;8.346;2024-01-06T10:42:40;8.10;99.90
5055;DHT22;13829;48.990;8.346;2024-01-06T10:45:09;8.30;99.90
5055;DHT22;13829;48.990;8.346;2024-01-06T10:47:37;8.00;99.90
5055;DHT22;13829;48.990;8.346;2024-01-06T10:50:06;8.10;99.90
5055;DHT22;13829;48.990;8.346;2024-01-06T10:52:34;8.20;99.90
5055;DHT22;13829;48.990;8.346;2024-01-06T10:55:02;8.20;99.90
5055;DHT22;13829;48.990;8.346;2024-01-06T10:57:32;8.00;99.90
5055;DHT22;13829;48.990;8.346;2024-01-06T11:00:00;8.00;99.90
5055;DHT22;13829;48.990;8.346;2024-01-06T11:02:27;8.00;99.90
5055;DHT22;13829;48.990;8.346;2024-01-06T11:04:55;8.00;99.90
5055;DHT22;13829;48.990;8.346;2024-01-06T11:07:25;8.10;99.90
5055;DHT22;13829;48.990;8.346;2024-01-06T11:10:00;8.10;99.90
5055;DHT22;13829;48.990;8.346;2024-01-06T11:12:32;8.10;99.90
5055;DHT22;13829;48.990;8.346;2024-01-06T11:14:59;8.00;99.90
5055;DHT22;13829;48.990;8.346;2024-01-06T11:17:51;8.00;99.90
5055;DHT22;13829;48.990;8.346;2024-01-06T11:20:21;8.20;99.90
5055;DHT22;13829;48.990;8.346;2024-01-06T11:22:49;8.20;99.90
5055;DHT22;13829;48.990;8.346;2024-01-06T11:25:17;8.20;99.90
5055;DHT22;13829;48.990;8.346;2024-01-06T11:27:47;8.30;99.90
5055;DHT22;13829;48.990;8.346;2024-01-06T11:30:22;8.20;99.90
5055;DHT22;13829;48.990;8.346;2024-01-06T11:32:51;8.20;99.90
5055;DHT22;13829;48.990;8.346;2024-01-06T11:35:20;8.30;99.90
5055;DHT22;13829;48.990;8.346;2024-01-06T11:37:54;8.20;99.90
5055;DHT22;13829;48.990;8.346;2024-01-06T11:40:24;8.40;99.90
5055;DHT22;13829;48.990;8.346;2024-01-06T11:43:01;8.20;99.90
5055;DHT22;13829;48.990;8.346;2024-01-06T11:45:31;8.20;99.90
5055;DHT22;13829;48.990;8.346;2024-01-06T11:48:00;8.20;99.90
5055;DHT22;13829;48.990;8.346;2024-01-06T11:50:29;8.20;99.90
5055;DHT22;13829;48.990;8.346;2024-01-06T11:52:59;8.20;99.90
5055;DHT22;13829;48.990;8.346;2024-01-06T11:55:26;8.10;99.90
5055;DHT22;13829;48.990;8.346;2024-01-06T11:57:54;8.10;99.90
5055;DHT22;13829;48.990;8.346;2024-01-06T12:00:24;8.10;99.90
5055;DHT22;13829;48.990;8.346;2024-01-06T12:02:56;8.10;99.90
5055;DHT22;13829;48.990;8.346;2024-01-06T12:05:23;8.20;99.90
5055;DHT22;13829;48.990;8.346;2024-01-06T12:07:55;8.00;99.90
5055;DHT22;13829;48.990;8.346;2024-01-06T12:10:23;8.00;99.90
5055;DHT22;13829;48.990;8.346;2024-01-06T12:12:56;8.00;99.90
5055;DHT22;13829;48.990;8.346;2024-01-06T12:15:26;8.00;99.90
5055;DHT22;13829;48.990;8.346;2024-01-06T12:17:55;8.00;99.90
5055;DHT22;13829;48.990;8.346;2024-01-06T12:20:23;8.10;99.90
5055;DHT22;13829;48.990;8.346;2024-01-06T12:22:52;8.10;99.90
5055;DHT22;13829;48.990;8.346;2024-01-06T12:25:20;8.10;99.90
5055;DHT22;13829;48.990;8.346;2024-01-06T12:27:48;8.20;99.90
5055;DHT22;13829;48.990;8.346;2024-01-06T12:30:17;8.10;99.90
5055;DHT22;13829;48.990;8.346;2024-01-06T12:32:48;8.10;99.90
5055;DHT22;13829;48.990;8.346;2024-01-06T12:35:19;8.10;99.90
5055;DHT22;13829;48.990;8.346;2024-01-06T12:37:47;8.10;99.90
5055;DHT22;13829;48.990;8.346;2024-01-06T12:40:16;8.10;99.90
5055;DHT22;13829;48.990;8.346;2024-01-06T12:42:45;8.10;99.90
5055;DHT22;13829;48.990;8.346;2024-01-06T12:45:12;8.10;99.90
5055;DHT22;13829;48.990;8.346;2024-01-06T12:47:41;8.20;99.90
5055;DHT22;13829;48.990;8.346;2024-01-06T12:50:10;8.30;99.90
5055;DHT22;13829;48.990;8.346;2024-01-06T12:52:37;8.30;99.90
5055;DHT22;13829;48.990;8.346;2024-01-06T12:55:05;8.30;99.90
5055;DHT22;13829;48.990;8.346;2024-01-06T12:57:32;8.30;99.90
5055;DHT22;13829;48.990;8.346;2024-01-06T13:00:00;8.30;99.90
5055;DHT22;13829;48.990;8.346;2024-01-06T13:02:27;8.40;99.90
5055;DHT22;13829;48.990;8.346;2024-01-06T13:04:54;8.40;99.90
5055;DHT22;13829;48.990;8.346;2024-01-06T13:07:23;8.40;99.90
5055;DHT22;13829;48.990;8.346;2024-01-06T13:09:51;8.30;99.90
5055;DHT22;13829;48.990;8.346;2024-01-06T13:12:18;8.20;99.90
5055;DHT22;13829;48.990;8.346;2024-01-06T13:14:45;8.30;99.90
5055;DHT22;13829;48.990;8.346;2024-01-06T13:17:13;8.30;99.90
5055;DHT22;13829;48.990;8.346;2024-01-06T13:19:40;8.30;99.90
5055;DHT22;13829;48.990;8.346;2024-01-06T13:22:07;8.30;99.90
5055;DHT22;13829;48.990;8.346;2024-01-06T13:24:35;8.30;99.90
5055;DHT22;13829;48.990;8.346;2024-01-06T13:27:03;8.20;99.90
5055;DHT22;13829;48.990;8.346;2024-01-06T13:29:30;8.10;99.90
5055;DHT22;13829;48.990;8.346;2024-01-06T13:31:57;8.30;99.90
5055;DHT22;13829;48.990;8.346;2024-01-06T13:34:25;8.20;99.90
5055;DHT22;13829;48.990;8.346;2024-01-06T13:36:52;8.20;99.90
5055;DHT22;13829;48.990;8.346;2024-01-06T13:39:19;8.20;99.90
5055;DHT22;13829;48.990;8.346;2024-01-06T13:41:48;8.30;99.90
5055;DHT22;13829;48.990;8.346;2024-01-06T13:44:15;8.30;99.90
5055;DHT22;13829;48.990;8.346;2024-01-06T13:46:43;8.20;99.90
5055;DHT22;13829;48.990;8.346;2024-01-06T13:49:10;8.20;99.90
5055;DHT22;13829;48.990;8.346;2024-01-06T13:51:37;8.20;99.90
5055;DHT22;13829;48.990;8.346;2024-01-06T13:54:05;8.20;99.90
5055;DHT22;13829;48.990;8.346;2024-01-06T13:56:32;8.20;99.90
5055;DHT22;13829;48.990;8.346;2024-01-06T13:59:00;8.20;99.90
5055;DHT22;13829;48.990;8.346;2024-01-06T14:01:27;8.20;99.90
5055;DHT22;13829;48.990;8.346;2024-01-06T14:03:55;8.10;99.90
5055;DHT22;13829;48.990;8.346;2024-01-06T14:06:24;8.20;99.90
5055;DHT22;13829;48.990;8.346;2024-01-06T14:08:55;8.20;99.90
5055;DHT22;13829;48.990;8.346;2024-01-06T14:11:22;8.10;99.90
5055;DHT22;13829;48.990;8.346;2024-01-06T14:13:49;8.10;99.90
5055;DHT22;13829;48.990;8.346;2024-01-06T14:16:18;8.20;99.90
5055;DHT22;13829;48.990;8.346;2024-01-06T14:18:46;8.20;99.90
5055;DHT22;13829;48.990;8.346;2024-01-06T14:21:13;8.20;99.90
5055;DHT22;13829;48.990;8.346;2024-01-06T14:23:40;8.20;99.90
5055;DHT22;13829;48.990;8.346;2024-01-06T14:26:07;8.20;99.90
5055;DHT22;13829;48.990;8.346;2024-01-06T14:28:35;8.20;99.90
5055;DHT22;13829;48.990;8.346;2024-01-06T14:31:02;8.20;99.90
5055;DHT22;13829;48.990;8.346;2024-01-06T14:33:31;8.10;99.90
5055;DHT22;13829;48.990;8.346;2024-01-06T14:36:00;8.00;99.90
5055;DHT22;13829;48.990;8.346;2024-01-06T14:38:27;8.00;99.90
5055;DHT22;13829;48.990;8.346;2024-01-06T14:40:54;7.90;99.90
5055;DHT22;13829;48.990;8.346;2024-01-06T14:43:21;8.00;99.90
5055;DHT22;13829;48.990;8.346;2024-01-06T14:45:48;8.10;99.90
5055;DHT22;13829;48.990;8.346;2024-01-06T14:48:15;8.10;99.90
5055;DHT22;13829;48.990;8.346;2024-01-06T14:50:43;8.10;99.90
5055;DHT22;13829;48.990;8.346;2024-01-06T14:53:10;8.10;99.90
5055;DHT22;13829;48.990;8.346;2024-01-06T14:55:37;8.10;99.90
5055;DHT22;13829;48.990;8.346;2024-01-06T14:58:05;8.10;99.90
5055;DHT22;13829;48.990;8.346;2024-01-06T15:00:34;8.30;99.90
5055;DHT22;13829;48.990;8.346;2024-01-06T15:03:03;8.10;99.90
5055;DHT22;13829;48.990;8.346;2024-01-06T15:05:30;8.10;99.90
5055;DHT22;13829;48.990;8.346;2024-01-06T15:07:58;8.10;99.90
5055;DHT22;13829;48.990;8.346;2024-01-06T15:10:25;8.10;99.90
5055;DHT22;13829;48.990;8.346;2024-01-06T15:12:52;8.10;99.90
5055;DHT22;13829;48.990;8.346;2024-01-06T15:15:19;8.10;99.90
5055;DHT22;13829;48.990;8.346;2024-01-06T15:17:46;8.10;99.90
5055;DHT22;13829;48.990;8.346;2024-01-06T15:20:13;8.00;99.90
5055;DHT22;13829;48.990;8.346;2024-01-06T15:22:40;8.00;99.90
5055;DHT22;13829;48.990;8.346;2024-01-06T15:25:09;8.00;99.90
5055;DHT22;13829;48.990;8.346;2024-01-06T15:27:36;8.10;99.90
5055;DHT22;13829;48.990;8.346;2024-01-06T15:30:04;8.10;99.90
5055;DHT22;13829;48.990;8.346;2024-01-06T15:32:34;8.00;99.90
5055;DHT22;13829;48.990;8.346;2024-01-06T15:35:02;8.10;99.90
5055;DHT22;13829;48.990;8.346;2024-01-06T15:37:30;8.00;99.90
5055;DHT22;13829;48.990;8.346;2024-01-06T15:39:57;8.00;99.90
5055;DHT22;13829;48.990;8.346;2024-01-06T15:42:26;7.90;99.90
5055;DHT22;13829;48.990;8.346;2024-01-06T15:44:54;8.00;99.90
5055;DHT22;13829;48.990;8.346;2024-01-06T15:47:21;7.90;99.90
5055;DHT22;13829;48.990;8.346;2024-01-06T15:49:48;8.00;99.90
5055;DHT22;13829;48.990;8.346;2024-01-06T15:52:15;8.00;99.90
5055;DHT22;13829;48.990;8.346;2024-01-06T15:54:47;8.00;99.90
5055;DHT22;13829;48.990;8.346;2024-01-06T15:57:14;7.90;99.90
5055;DHT22;13829;48.990;8.346;2024-01-06T15:59:43;7.90;99.90
5055;DHT22;13829;48.990;8.346;2024-01-06T16:02:11;7.90;99.90
5055;DHT22;13829;48.990;8.346;2024-01-06T16:04:38;8.00;99.90